Řízení letového provozu České republiky
Letiste: LKTB Aktualizace: 20.07.2018 15:31:07  UTC
 METAR LKTB 20.07. 15:30 ...
METAR LKTB 201530Z VRB05KT CAVOK 29/12 Q1012 NOSIG RMK REG QNH 1010=
 TAF LKTB 20.07. 11:00 ...
TAF LKTB 201100Z 2012/2118 30008KT CAVOK      BECMG 2012/2014 08007KT      TEMPO 2012/2118 9999 SCT045      PROB30 TEMPO 2116/2118 7000 SHRA SCT045TCU BKN047=